Aviation Digital Data Service (ADDS)

Output produced by METARs form (2244 UTC 26 February 2020)
found at http://www.aviationweather.gov/metar/data/
 
LZSL 262230Z VRB02KT CAVOK M01/M03 Q0999
LZSL 262200Z VRB01KT CAVOK M01/M03 Q0999
LZSL 262130Z VRB01KT CAVOK M00/M03 Q1000
LZSL 262100Z VRB01KT CAVOK 00/M02 Q0999
LZSL 262030Z 16004KT 140V250 CAVOK 01/M02 Q0999
LZSL 262000Z 00000KT CAVOK 02/M02 Q0999
LZSL 261930Z VRB01KT CAVOK 02/M02 Q0999
LZSL 261900Z 30005KT 260V350 CAVOK 03/M02 Q0998
LZSL 261830Z 25004KT 220V300 9999 FEW040 03/M01 Q0998
LZSL 261800Z 27005KT 240V300 9999 FEW040 03/M01 Q0998
LZSL 261730Z 25005KT 220V280 9999 FEW037 03/M00 Q0998
LZSL 261700Z 26006KT 9999 FEW037 04/M00 Q0997
LZSL 261630Z 26005KT 9999 FEW038 04/01 Q0997
LZSL 261600Z 25008KT 9999 SCT037 04/02 Q0997
LZSL 261530Z 23007KT 9999 SCT033 04/02 Q0996
LZSL 261500Z 22008KT 9999 BKN031 OVC093 04/02 Q0996
LZSL 261430Z 25006KT 220V310 9999 FEW013 SCT026 OVC079 05/02 Q0996
LZSL 261400Z 25006KT 9999 -RA FEW025 OVC050 05/02 Q0996
LZSL 261330Z 27007KT 9999 -RA FEW010 SCT022 OVC033 05/02 Q0995
LZSL 261300Z 24005KT 9999 FEW033 BKN072 OVC086 06/03 Q0995
LZSL 261230Z 25010KT 9999 -SHRA FEW011TCU BKN033 OVC040 06/03 Q0995
LZSL 261200Z 23008KT 9999 FEW027 BKN037 OVC085 08/02 Q0995
LZSL 261130Z 24005KT 170V330 9999 FEW029 BKN035 08/01 Q0995
LZSL 261100Z 25003KT 220V300 9999 FEW035 SCT073 OVC090 08/02 Q0995
LZSL 261030Z VRB01KT 9999 FEW036 OVC089 08/01 Q0996
LZSL 261000Z 21003KT 160V240 9999 FEW030 OVC087 07/02 Q0996
LZSL 260930Z 21004KT 170V240 9999 FEW030 OVC088 07/02 Q0996
LZSL 260900Z 20005KT 9999 FEW030 OVC100 07/04 Q0996
LZSL 260830Z 15003KT 080V220 9999 FEW030 OVC098 06/05 Q0995
LZSL 260800Z 20004KT 9999 FEW030 SCT053 OVC085 06/05 Q0996
LZSL 260730Z 20004KT 9999 FEW030 SCT059 OVC075 06/05 Q0996
LZSL 260700Z 00000KT 9999 -RA SCT021 BKN025 OVC030 05/05 Q0996
LZSL 260630Z VRB01KT 9999 -RA SCT030 BKN040 OVC050 04/04 Q0996
LZSL 260600Z 00000KT 9999 BKN033 04/04 Q0996
LZSL 260530Z 30001KT 9999 OVC035 05/04 Q0996
LZSL 260500Z 00000KT 9999 OVC034 05/04 Q0996
LZSL 260430Z VRB02KT 9999 OVC036 05/04 Q0996
LZSL 260400Z 30004KT 9999 OVC040 05/03 Q0997
LZSL 260330Z 01003KT CAVOK 06/04 Q0996
LZSL 260300Z VRB02KT CAVOK 06/04 Q0997
LZSL 260230Z 14004KT 120V190 9999 -RA OVC036 07/04 Q0997
LZSL 260200Z 19003KT 140V250 9999 -RA OVC033 07/04 Q0998
LZSL 260130Z 21003KT 190V250 9999 -RA OVC036 08/04 Q0999
LZSL 260100Z 26003KT 200V300 9999 OVC043 08/03 Q0999
LZSL 260030Z 28003KT 190V340 9999 BKN046 08/03 Q0999
LZSL 260000Z 32003KT 280V040 9999 OVC040 08/03 Q0999
LZSL 252330Z 31003KT 250V360 9999 OVC042 08/03 Q0999
LZSL 252300Z VRB02KT 9999 OVC045 07/04 Q0999
LZSL 252230Z VRB02KT 9999 OVC050 07/04 Q0999
LZSL 252200Z VRB01KT 9999 OVC058 07/04 Q0999
LZSL 252130Z VRB02KT 9999 BKN053 07/03 Q0999
LZSL 252100Z VRB02KT 9999 BKN055 07/03 Q0999
LZSL 252030Z 35002KT 9999 BKN060 06/03 Q1000
LZSL 252000Z VRB01KT 9999 BKN060 06/03 Q1000
LZSL 251930Z VRB01KT CAVOK 06/03 Q1000
LZSL 251900Z 02003KT 340V070 CAVOK 07/03 Q1000
LZSL 251830Z VRB02KT CAVOK 07/03 Q1000
LZSL 251800Z VRB02KT CAVOK 08/03 Q1000
LZSL 251730Z VRB01KT CAVOK 08/03 Q1001
LZSL 251700Z 24003KT CAVOK 09/03 Q1001
LZSL 251630Z 21006KT 170V230 9999 FEW062 BKN080 11/02 Q1001
LZSL 251600Z 20005KT 9999 FEW062 BKN070 11/02 Q1001
LZSL 251530Z 20007KT CAVOK 12/02 Q1001
LZSL 251500Z 19007KT 160V220 CAVOK 13/02 Q1001
LZSL 251430Z VRB01KT CAVOK 13/03 Q1002
LZSL 251400Z VRB01KT CAVOK 13/03 Q1002
LZSL 251330Z VRB01KT CAVOK 12/02 Q1003
LZSL 251300Z VRB02KT CAVOK 12/02 Q1003
LZSL 251230Z VRB02KT CAVOK 12/02 Q1004
LZSL 251200Z VRB01KT 9999 FEW060 11/02 Q1004
LZSL 251130Z VRB01KT 9999 FEW050 11/01 Q1005
LZSL 251100Z VRB02KT 9999 FEW060 10/01 Q1006
LZSL 251030Z VRB02KT CAVOK 08/00 Q1006
LZSL 251000Z 34004KT 310V010 CAVOK 07/01 Q1007
LZSL 250930Z VRB02KT CAVOK 07/01 Q1007
LZSL 250900Z VRB01KT 9999 FEW060 07/01 Q1007
LZSL 250830Z VRB01KT 9999 FEW050 06/01 Q1008
LZSL 250817Z VRB02KT 9999 FEW050 06/01 Q1008
LZSL 250800Z VRB01KT 9999 BKN050 04/01 Q1008
LZSL 250730Z 00000KT 9999 BKN052 03/02 Q1008
LZSL 250700Z 00000KT 9999 BKN047 01/01 Q1009
LZSL 250630Z 00000KT 9999 BKN049 01/00 Q1009
LZSL 250600Z 32001KT 9999 BKN050 01/M00 Q1009
LZSL 250530Z 00000KT 9999 BKN051 01/M00 Q1009
LZSL 250500Z 05001KT 9999 BKN053 01/00 Q1009
LZSL 250430Z VRB01KT 9999 BKN055 01/M00 Q1009
LZSL 250400Z 22001KT 9999 BKN058 01/M00 Q1010
LZSL 250330Z 00000KT 9999 FEW043 BKN061 01/M00 Q1010
LZSL 250300Z VRB01KT 9999 SCT044 BKN065 02/M00 Q1010
LZSL 250230Z 04001KT 9999 SCT048 BKN062 02/M00 Q1011
LZSL 250200Z 00000KT 9999 SCT048 02/M00 Q1011
LZSL 250130Z VRB01KT 9999 OVC047 02/00 Q1012
LZSL 250100Z VRB01KT 9999 OVC046 03/00 Q1012
LZSL 250030Z 01003KT 9999 OVC043 02/M00 Q1013
LZSL 250000Z 01003KT 9999 OVC045 02/00 Q1013
LZSL 242330Z 35003KT 310V010 9999 OVC045 02/M00 Q1013
LZSL 242300Z 08004KT 9999 SCT022 OVC044 02/M00 Q1014
LZSL 242230Z VRB01KT 6000 -RA OVC026 02/M00 Q1015
LZSL 242200Z VRB02KT 9999 -RA OVC038 02/M01 Q1015
LZSL 242130Z VRB02KT 9999 SCT051 OVC077 02/M01 Q1015
LZSL 242100Z VRB01KT CAVOK 02/M01 Q1015
LZSL 242030Z VRB01KT CAVOK 02/M01 Q1016
LZSL 242000Z VRB01KT CAVOK 02/M02 Q1016
LZSL 241930Z 04001KT CAVOK 02/M02 Q1016
LZSL 241900Z VRB02KT CAVOK 02/M01 Q1016
LZSL 241830Z 33004KT 300V010 CAVOK 02/M02 Q1017
LZSL 241800Z VRB01KT CAVOK 02/M02 Q1017
LZSL 241730Z 23003KT 210V300 CAVOK 03/M02 Q1017
LZSL 241700Z VRB02KT 9999 FEW040 05/M03 Q1018
LZSL 241630Z 27004KT 240V300 9999 FEW050 06/M03 Q1018
LZSL 241600Z 26005KT 240V300 9999 FEW050 06/M03 Q1018
LZSL 241530Z 27006KT 240V310 9999 FEW050 07/M03 Q1018
LZSL 241500Z 28008KT 250V310 9999 FEW050 07/M04 Q1018
LZSL 241430Z 30010KT 250V330 9999 FEW053 08/M03 Q1018
LZSL 241400Z 27013KT 9999 FEW055 08/M03 Q1018
LZSL 241330Z 29010KT 250V320 9999 FEW053 09/M03 Q1018
LZSL 241300Z 27010KT 9999 SCT052 08/M03 Q1018
LZSL 241230Z 30009KT 9999 SCT054 08/M04 Q1019
LZSL 241200Z VRB02KT 9999 BKN056 08/M03 Q1019
LZSL 241130Z 01005KT 340V060 9999 SCT053 08/M04 Q1019
LZSL 241100Z 01007KT 310V070 9999 SCT052 08/M04 Q1019
LZSL 241030Z 01010KT 320V040 9999 FEW048 08/M03 Q1019
LZSL 241000Z 34012KT 320V040 9999 FEW048 08/M03 Q1019
LZSL 240930Z 02010G23KT 340V070 9999 FEW046 07/M04 Q1019
LZSL 240900Z 01012G23KT 310V060 9999 FEW041 06/M04 Q1018
LZSL 240830Z 34024G38KT 9999 FEW040 06/M04 Q1018
LZSL 240800Z 35029G40KT 9999 FEW040 05/M04 Q1017
LZSL 240730Z 34027G39KT 9999 FEW040 05/M04 Q1016
LZSL 240700Z 35027G39KT 310V020 9999 FEW050 05/M04 Q1017
LZSL 240630Z 34018G36KT 310V010 9999 FEW048 05/M05 Q1016
LZSL 240600Z 34019G31KT 310V010 9999 SCT058 05/M06 Q1015
LZSL 240530Z 33018G31KT 300V010 9999 SCT058 05/M05 Q1014
LZSL 240500Z 32014KT 9999 SCT054 05/M03 Q1013
LZSL 240430Z 33020KT 9999 FEW044 SCT067 06/M03 Q1012
LZSL 240400Z 34017G30KT 310V020 CAVOK 06/M03 Q1011
LZSL 240330Z 35021G37KT 310V010 9999 FEW052 06/M02 Q1011
LZSL 240300Z 33016G26KT 9999 FEW053 BKN100 07/M00 Q1010
LZSL 240230Z 33018G31KT 290V360 9999 FEW041 BKN088 07/01 Q1009
LZSL 240200Z 30020G31KT 280V340 9999 FEW064 SCT080 08/M00 Q1008
LZSL 240130Z 32021G34KT 290V350 9999 -RA FEW008 SCT067 BKN086 08/02 Q1007
LZSL 240100Z 34016G28KT 310V010 9999 -RA SCT033 BKN040 OVC059 08/04 Q1007
LZSL 240030Z 32026G36KT 9999 SCT028 BKN056 10/05 Q1005
LZSL 240007Z 32023G39KT 8000 -SHRA FEW017 BKN038 OVC050 10/06 Q1005
LZSL 240000Z 28019KT 250V320 6000 -SHRA FEW018 BKN044 OVC052 12/08 Q1004
LZSL 232330Z 28013G30KT 9999 SCT047 BKN054 OVC066 12/07 Q1004
LZSL 232300Z 27018KT 240V310 9999 -RA FEW016 SCT040 OVC050 12/07 Q1005
LZSL 232246Z 27016G26KT 240V310 9999 -RA FEW021 SCT038 OVC046 12/07 Q1005
TAF LZSL 262000Z 2621/2706 VRB02KT CAVOK